sensor_id;sensor_type;location;lat;lon;timestamp;P1;durP1;ratioP1;P2;durP2;ratioP2
24151;SDS011;12311;50.866;4.332;2023-02-20T00:01:16;14.98;;;4.15;;
24151;SDS011;12311;50.866;4.332;2023-02-20T00:03:43;7.07;;;3.38;;
24151;SDS011;12311;50.866;4.332;2023-02-20T00:06:09;5.75;;;3.20;;
24151;SDS011;12311;50.866;4.332;2023-02-20T00:08:35;4.95;;;3.13;;
24151;SDS011;12311;50.866;4.332;2023-02-20T00:11:00;22.48;;;3.88;;
24151;SDS011;12311;50.866;4.332;2023-02-20T00:13:26;6.13;;;3.17;;
24151;SDS011;12311;50.866;4.332;2023-02-20T00:15:52;7.65;;;3.28;;
24151;SDS011;12311;50.866;4.332;2023-02-20T00:18:18;8.80;;;3.28;;
24151;SDS011;12311;50.866;4.332;2023-02-20T00:20:43;5.90;;;3.15;;
24151;SDS011;12311;50.866;4.332;2023-02-20T00:23:09;8.73;;;3.67;;
24151;SDS011;12311;50.866;4.332;2023-02-20T00:25:34;11.88;;;4.07;;
24151;SDS011;12311;50.866;4.332;2023-02-20T00:28:00;7.07;;;2.90;;
24151;SDS011;12311;50.866;4.332;2023-02-20T00:30:26;19.00;;;2.63;;
24151;SDS011;12311;50.866;4.332;2023-02-20T00:32:53;5.75;;;2.88;;
24151;SDS011;12311;50.866;4.332;2023-02-20T00:35:20;3.97;;;2.30;;
24151;SDS011;12311;50.866;4.332;2023-02-20T00:37:47;7.30;;;2.70;;
24151;SDS011;12311;50.866;4.332;2023-02-20T00:40:14;8.95;;;2.45;;
24151;SDS011;12311;50.866;4.332;2023-02-20T00:42:41;7.22;;;3.42;;
24151;SDS011;12311;50.866;4.332;2023-02-20T00:45:07;8.48;;;2.97;;
24151;SDS011;12311;50.866;4.332;2023-02-20T00:47:34;6.40;;;2.88;;
24151;SDS011;12311;50.866;4.332;2023-02-20T00:50:00;11.90;;;2.55;;
24151;SDS011;12311;50.866;4.332;2023-02-20T00:52:26;7.57;;;3.47;;
24151;SDS011;12311;50.866;4.332;2023-02-20T00:54:51;3.95;;;2.33;;
24151;SDS011;12311;50.866;4.332;2023-02-20T00:57:17;6.80;;;2.83;;
24151;SDS011;12311;50.866;4.332;2023-02-20T00:59:43;7.57;;;2.95;;
24151;SDS011;12311;50.866;4.332;2023-02-20T01:02:08;11.35;;;3.97;;
24151;SDS011;12311;50.866;4.332;2023-02-20T01:04:34;13.82;;;3.95;;
24151;SDS011;12311;50.866;4.332;2023-02-20T01:07:00;14.10;;;4.30;;
24151;SDS011;12311;50.866;4.332;2023-02-20T01:09:26;8.63;;;3.30;;
24151;SDS011;12311;50.866;4.332;2023-02-20T01:11:52;7.80;;;2.70;;
24151;SDS011;12311;50.866;4.332;2023-02-20T01:14:18;9.82;;;3.63;;
24151;SDS011;12311;50.866;4.332;2023-02-20T01:16:45;21.02;;;5.82;;
24151;SDS011;12311;50.866;4.332;2023-02-20T01:19:12;10.57;;;4.55;;
24151;SDS011;12311;50.866;4.332;2023-02-20T01:21:39;21.67;;;4.63;;
24151;SDS011;12311;50.866;4.332;2023-02-20T01:24:05;12.38;;;3.80;;
24151;SDS011;12311;50.866;4.332;2023-02-20T01:26:31;11.10;;;3.92;;
24151;SDS011;12311;50.866;4.332;2023-02-20T01:28:56;11.07;;;4.97;;
24151;SDS011;12311;50.866;4.332;2023-02-20T01:31:22;12.95;;;4.85;;
24151;SDS011;12311;50.866;4.332;2023-02-20T01:33:48;13.73;;;4.32;;
24151;SDS011;12311;50.866;4.332;2023-02-20T01:36:13;10.50;;;4.75;;
24151;SDS011;12311;50.866;4.332;2023-02-20T01:38:40;7.82;;;4.90;;
24151;SDS011;12311;50.866;4.332;2023-02-20T01:41:09;9.32;;;4.80;;
24151;SDS011;12311;50.866;4.332;2023-02-20T01:43:35;13.70;;;5.40;;
24151;SDS011;12311;50.866;4.332;2023-02-20T01:49:00;15.00;;;6.05;;
24151;SDS011;12311;50.866;4.332;2023-02-20T01:51:40;15.55;;;6.35;;
24151;SDS011;12311;50.866;4.332;2023-02-20T01:54:08;14.48;;;6.65;;
24151;SDS011;12311;50.866;4.332;2023-02-20T01:56:38;17.05;;;6.50;;
24151;SDS011;12311;50.866;4.332;2023-02-20T01:59:04;14.32;;;6.18;;
24151;SDS011;12311;50.866;4.332;2023-02-20T02:01:32;13.48;;;5.40;;
24151;SDS011;12311;50.866;4.332;2023-02-20T02:03:59;16.52;;;5.72;;
24151;SDS011;12311;50.866;4.332;2023-02-20T02:06:28;15.38;;;6.20;;
24151;SDS011;12311;50.866;4.332;2023-02-20T02:08:55;21.58;;;5.40;;
24151;SDS011;12311;50.866;4.332;2023-02-20T02:11:23;20.48;;;6.18;;
24151;SDS011;12311;50.866;4.332;2023-02-20T02:13:51;20.52;;;6.45;;
24151;SDS011;12311;50.866;4.332;2023-02-20T02:28:05;7.80;;;2.78;;
24151;SDS011;12311;50.866;4.332;2023-02-20T02:41:45;13.68;;;4.10;;
24151;SDS011;12311;50.866;4.332;2023-02-20T02:47:21;9.23;;;4.72;;
24151;SDS011;12311;50.866;4.332;2023-02-20T02:52:24;8.50;;;3.42;;
24151;SDS011;12311;50.866;4.332;2023-02-20T02:55:25;12.57;;;2.95;;
24151;SDS011;12311;50.866;4.332;2023-02-20T02:57:52;7.57;;;3.40;;
24151;SDS011;12311;50.866;4.332;2023-02-20T03:03:07;8.93;;;3.83;;
24151;SDS011;12311;50.866;4.332;2023-02-20T03:05:42;6.97;;;3.15;;
24151;SDS011;12311;50.866;4.332;2023-02-20T03:10:56;12.75;;;3.10;;
24151;SDS011;12311;50.866;4.332;2023-02-20T03:13:31;8.57;;;2.88;;
24151;SDS011;12311;50.866;4.332;2023-02-20T03:16:20;10.82;;;2.53;;
24151;SDS011;12311;50.866;4.332;2023-02-20T03:18:50;7.53;;;3.38;;
24151;SDS011;12311;50.866;4.332;2023-02-20T03:21:22;7.53;;;2.97;;
24151;SDS011;12311;50.866;4.332;2023-02-20T03:23:53;8.48;;;3.00;;
24151;SDS011;12311;50.866;4.332;2023-02-20T03:26:26;9.50;;;3.85;;
24151;SDS011;12311;50.866;4.332;2023-02-20T03:31:25;5.38;;;2.42;;
24151;SDS011;12311;50.866;4.332;2023-02-20T03:33:59;5.47;;;2.63;;
24151;SDS011;12311;50.866;4.332;2023-02-20T03:39:58;3.67;;;2.05;;
24151;SDS011;12311;50.866;4.332;2023-02-20T03:42:46;14.63;;;3.20;;
24151;SDS011;12311;50.866;4.332;2023-02-20T03:45:35;12.25;;;2.72;;
24151;SDS011;12311;50.866;4.332;2023-02-20T03:48:06;9.45;;;2.65;;
24151;SDS011;12311;50.866;4.332;2023-02-20T03:50:36;4.50;;;2.35;;
24151;SDS011;12311;50.866;4.332;2023-02-20T03:53:20;9.02;;;2.75;;
24151;SDS011;12311;50.866;4.332;2023-02-20T03:55:48;15.23;;;3.17;;
24151;SDS011;12311;50.866;4.332;2023-02-20T03:58:16;8.32;;;3.08;;
24151;SDS011;12311;50.866;4.332;2023-02-20T04:00:47;4.57;;;2.67;;
24151;SDS011;12311;50.866;4.332;2023-02-20T04:03:19;4.07;;;1.85;;
24151;SDS011;12311;50.866;4.332;2023-02-20T04:05:48;10.93;;;2.78;;
24151;SDS011;12311;50.866;4.332;2023-02-20T04:08:21;9.23;;;2.33;;
24151;SDS011;12311;50.866;4.332;2023-02-20T04:11:44;8.38;;;2.00;;
24151;SDS011;12311;50.866;4.332;2023-02-20T04:13:50;9.23;;;3.20;;
24151;SDS011;12311;50.866;4.332;2023-02-20T04:16:19;6.47;;;2.13;;
24151;SDS011;12311;50.866;4.332;2023-02-20T04:18:45;2.92;;;1.75;;
24151;SDS011;12311;50.866;4.332;2023-02-20T04:21:22;5.75;;;1.90;;
24151;SDS011;12311;50.866;4.332;2023-02-20T04:24:17;5.68;;;2.08;;
24151;SDS011;12311;50.866;4.332;2023-02-20T04:26:47;5.13;;;2.28;;
24151;SDS011;12311;50.866;4.332;2023-02-20T04:29:13;8.13;;;2.50;;
24151;SDS011;12311;50.866;4.332;2023-02-20T04:31:39;9.23;;;2.25;;
24151;SDS011;12311;50.866;4.332;2023-02-20T04:34:05;3.28;;;1.80;;
24151;SDS011;12311;50.866;4.332;2023-02-20T04:36:30;7.90;;;2.63;;
24151;SDS011;12311;50.866;4.332;2023-02-20T04:38:56;7.20;;;2.80;;
24151;SDS011;12311;50.866;4.332;2023-02-20T04:41:22;7.05;;;2.13;;
24151;SDS011;12311;50.866;4.332;2023-02-20T04:43:48;20.60;;;3.15;;
24151;SDS011;12311;50.866;4.332;2023-02-20T04:46:13;10.93;;;2.83;;
24151;SDS011;12311;50.866;4.332;2023-02-20T04:48:39;6.20;;;3.13;;
24151;SDS011;12311;50.866;4.332;2023-02-20T04:51:05;10.98;;;2.92;;
24151;SDS011;12311;50.866;4.332;2023-02-20T04:53:31;3.92;;;1.92;;
24151;SDS011;12311;50.866;4.332;2023-02-20T04:55:56;5.07;;;2.53;;
24151;SDS011;12311;50.866;4.332;2023-02-20T04:58:22;6.70;;;1.65;;
24151;SDS011;12311;50.866;4.332;2023-02-20T05:00:48;8.77;;;2.10;;
24151;SDS011;12311;50.866;4.332;2023-02-20T05:03:14;7.85;;;1.65;;
24151;SDS011;12311;50.866;4.332;2023-02-20T05:05:39;8.45;;;1.83;;
24151;SDS011;12311;50.866;4.332;2023-02-20T05:08:06;14.40;;;2.08;;
24151;SDS011;12311;50.866;4.332;2023-02-20T05:10:33;9.45;;;2.55;;
24151;SDS011;12311;50.866;4.332;2023-02-20T05:12:59;4.00;;;1.88;;
24151;SDS011;12311;50.866;4.332;2023-02-20T05:15:26;4.05;;;2.20;;
24151;SDS011;12311;50.866;4.332;2023-02-20T05:17:53;7.43;;;2.78;;
24151;SDS011;12311;50.866;4.332;2023-02-20T05:20:19;12.10;;;2.88;;
24151;SDS011;12311;50.866;4.332;2023-02-20T05:22:45;2.60;;;1.17;;
24151;SDS011;12311;50.866;4.332;2023-02-20T05:25:11;7.60;;;2.78;;
24151;SDS011;12311;50.866;4.332;2023-02-20T05:27:38;3.45;;;1.65;;
24151;SDS011;12311;50.866;4.332;2023-02-20T05:30:05;3.78;;;1.95;;
24151;SDS011;12311;50.866;4.332;2023-02-20T05:32:31;5.85;;;1.70;;
24151;SDS011;12311;50.866;4.332;2023-02-20T05:34:57;7.35;;;1.65;;
24151;SDS011;12311;50.866;4.332;2023-02-20T05:37:23;4.90;;;2.42;;
24151;SDS011;12311;50.866;4.332;2023-02-20T05:39:50;12.13;;;2.45;;
24151;SDS011;12311;50.866;4.332;2023-02-20T05:42:16;6.18;;;2.35;;
24151;SDS011;12311;50.866;4.332;2023-02-20T05:44:42;3.90;;;1.83;;
24151;SDS011;12311;50.866;4.332;2023-02-20T05:47:08;5.93;;;1.65;;
24151;SDS011;12311;50.866;4.332;2023-02-20T05:49:34;3.22;;;1.80;;
24151;SDS011;12311;50.866;4.332;2023-02-20T05:52:01;9.82;;;1.95;;
24151;SDS011;12311;50.866;4.332;2023-02-20T05:54:28;6.32;;;1.65;;
24151;SDS011;12311;50.866;4.332;2023-02-20T05:56:53;2.88;;;1.95;;
24151;SDS011;12311;50.866;4.332;2023-02-20T05:59:20;5.90;;;1.83;;
24151;SDS011;12311;50.866;4.332;2023-02-20T06:01:47;4.65;;;2.00;;
24151;SDS011;12311;50.866;4.332;2023-02-20T06:04:17;1.90;;;1.35;;
24151;SDS011;12311;50.866;4.332;2023-02-20T06:06:43;6.35;;;1.65;;
24151;SDS011;12311;50.866;4.332;2023-02-20T06:09:09;5.88;;;1.25;;
24151;SDS011;12311;50.866;4.332;2023-02-20T06:11:36;6.35;;;1.30;;
24151;SDS011;12311;50.866;4.332;2023-02-20T06:14:03;9.73;;;1.45;;
24151;SDS011;12311;50.866;4.332;2023-02-20T06:16:30;4.53;;;2.17;;
24151;SDS011;12311;50.866;4.332;2023-02-20T06:18:58;2.88;;;1.45;;
24151;SDS011;12311;50.866;4.332;2023-02-20T06:21:24;8.00;;;2.13;;
24151;SDS011;12311;50.866;4.332;2023-02-20T06:23:51;6.78;;;2.00;;
24151;SDS011;12311;50.866;4.332;2023-02-20T06:26:18;6.57;;;1.20;;
24151;SDS011;12311;50.866;4.332;2023-02-20T06:28:45;3.67;;;1.77;;
24151;SDS011;12311;50.866;4.332;2023-02-20T06:31:18;2.78;;;1.67;;
24151;SDS011;12311;50.866;4.332;2023-02-20T06:33:46;3.88;;;1.73;;
24151;SDS011;12311;50.866;4.332;2023-02-20T06:36:17;6.65;;;2.28;;
24151;SDS011;12311;50.866;4.332;2023-02-20T06:38:47;2.90;;;1.70;;
24151;SDS011;12311;50.866;4.332;2023-02-20T06:41:13;4.20;;;1.63;;
24151;SDS011;12311;50.866;4.332;2023-02-20T06:43:39;7.30;;;2.70;;
24151;SDS011;12311;50.866;4.332;2023-02-20T06:46:04;10.68;;;3.25;;
24151;SDS011;12311;50.866;4.332;2023-02-20T06:48:30;8.40;;;3.63;;
24151;SDS011;12311;50.866;4.332;2023-02-20T06:50:56;4.82;;;2.20;;
24151;SDS011;12311;50.866;4.332;2023-02-20T06:53:21;4.43;;;2.15;;
24151;SDS011;12311;50.866;4.332;2023-02-20T06:55:47;6.63;;;3.53;;
24151;SDS011;12311;50.866;4.332;2023-02-20T06:58:13;7.72;;;2.72;;
24151;SDS011;12311;50.866;4.332;2023-02-20T07:00:38;8.93;;;2.33;;
24151;SDS011;12311;50.866;4.332;2023-02-20T07:03:04;9.70;;;2.95;;
24151;SDS011;12311;50.866;4.332;2023-02-20T07:05:29;4.55;;;1.80;;
24151;SDS011;12311;50.866;4.332;2023-02-20T07:07:55;7.82;;;2.15;;
24151;SDS011;12311;50.866;4.332;2023-02-20T07:10:21;5.68;;;2.08;;
24151;SDS011;12311;50.866;4.332;2023-02-20T07:12:46;4.68;;;1.75;;
24151;SDS011;12311;50.866;4.332;2023-02-20T07:15:12;5.30;;;2.35;;
24151;SDS011;12311;50.866;4.332;2023-02-20T07:17:38;7.68;;;1.92;;
24151;SDS011;12311;50.866;4.332;2023-02-20T07:20:04;11.07;;;2.63;;
24151;SDS011;12311;50.866;4.332;2023-02-20T07:22:30;6.13;;;2.05;;
24151;SDS011;12311;50.866;4.332;2023-02-20T07:24:56;7.88;;;2.75;;
24151;SDS011;12311;50.866;4.332;2023-02-20T07:27:21;12.40;;;3.03;;
24151;SDS011;12311;50.866;4.332;2023-02-20T07:29:48;4.45;;;2.30;;
24151;SDS011;12311;50.866;4.332;2023-02-20T07:32:15;3.38;;;1.98;;
24151;SDS011;12311;50.866;4.332;2023-02-20T07:34:44;9.43;;;2.47;;
24151;SDS011;12311;50.866;4.332;2023-02-20T07:37:11;16.75;;;2.55;;
24151;SDS011;12311;50.866;4.332;2023-02-20T07:39:37;5.35;;;2.60;;
24151;SDS011;12311;50.866;4.332;2023-02-20T07:42:03;7.03;;;2.35;;
24151;SDS011;12311;50.866;4.332;2023-02-20T07:44:29;6.20;;;2.00;;
24151;SDS011;12311;50.866;4.332;2023-02-20T07:46:54;4.63;;;1.60;;
24151;SDS011;12311;50.866;4.332;2023-02-20T07:49:20;3.88;;;2.55;;
24151;SDS011;12311;50.866;4.332;2023-02-20T07:51:46;10.05;;;2.67;;
24151;SDS011;12311;50.866;4.332;2023-02-20T07:54:11;3.50;;;1.98;;
24151;SDS011;12311;50.866;4.332;2023-02-20T07:56:39;11.48;;;2.95;;
24151;SDS011;12311;50.866;4.332;2023-02-20T07:59:05;8.32;;;2.22;;
24151;SDS011;12311;50.866;4.332;2023-02-20T08:01:31;9.93;;;2.83;;
24151;SDS011;12311;50.866;4.332;2023-02-20T08:03:57;7.03;;;2.63;;
24151;SDS011;12311;50.866;4.332;2023-02-20T08:06:22;3.90;;;2.28;;
24151;SDS011;12311;50.866;4.332;2023-02-20T08:08:48;5.80;;;2.50;;
24151;SDS011;12311;50.866;4.332;2023-02-20T08:11:15;11.27;;;4.32;;
24151;SDS011;12311;50.866;4.332;2023-02-20T08:13:43;6.60;;;2.88;;
24151;SDS011;12311;50.866;4.332;2023-02-20T08:16:09;11.02;;;2.65;;
24151;SDS011;12311;50.866;4.332;2023-02-20T08:18:35;4.97;;;2.47;;
24151;SDS011;12311;50.866;4.332;2023-02-20T08:21:00;7.28;;;2.67;;
24151;SDS011;12311;50.866;4.332;2023-02-20T08:23:26;13.27;;;3.25;;
24151;SDS011;12311;50.866;4.332;2023-02-20T08:25:52;5.72;;;2.30;;
24151;SDS011;12311;50.866;4.332;2023-02-20T08:28:18;10.45;;;2.83;;
24151;SDS011;12311;50.866;4.332;2023-02-20T08:30:44;6.40;;;2.72;;
24151;SDS011;12311;50.866;4.332;2023-02-20T08:33:10;8.90;;;3.60;;
24151;SDS011;12311;50.866;4.332;2023-02-20T08:35:36;5.30;;;2.08;;
24151;SDS011;12311;50.866;4.332;2023-02-20T08:38:06;5.38;;;2.45;;
24151;SDS011;12311;50.866;4.332;2023-02-20T08:40:45;4.78;;;2.25;;
24151;SDS011;12311;50.866;4.332;2023-02-20T08:43:11;10.32;;;3.95;;
24151;SDS011;12311;50.866;4.332;2023-02-20T08:45:37;11.32;;;3.33;;
24151;SDS011;12311;50.866;4.332;2023-02-20T08:48:02;5.68;;;2.63;;
24151;SDS011;12311;50.866;4.332;2023-02-20T08:50:28;7.03;;;2.28;;
24151;SDS011;12311;50.866;4.332;2023-02-20T08:52:54;8.85;;;4.15;;
24151;SDS011;12311;50.866;4.332;2023-02-20T08:55:19;6.30;;;2.58;;
24151;SDS011;12311;50.866;4.332;2023-02-20T08:57:45;11.48;;;2.22;;
24151;SDS011;12311;50.866;4.332;2023-02-20T09:00:12;13.68;;;2.35;;
24151;SDS011;12311;50.866;4.332;2023-02-20T09:02:39;7.40;;;3.42;;
24151;SDS011;12311;50.866;4.332;2023-02-20T09:05:05;15.18;;;3.33;;
24151;SDS011;12311;50.866;4.332;2023-02-20T09:07:31;7.32;;;2.95;;
24151;SDS011;12311;50.866;4.332;2023-02-20T09:09:57;11.13;;;3.20;;
24151;SDS011;12311;50.866;4.332;2023-02-20T09:12:23;11.80;;;3.50;;
24151;SDS011;12311;50.866;4.332;2023-02-20T09:14:48;14.30;;;2.67;;
24151;SDS011;12311;50.866;4.332;2023-02-20T09:17:15;8.73;;;2.17;;
24151;SDS011;12311;50.866;4.332;2023-02-20T09:19:41;7.25;;;2.75;;
24151;SDS011;12311;50.866;4.332;2023-02-20T09:22:07;8.43;;;2.63;;
24151;SDS011;12311;50.866;4.332;2023-02-20T09:24:32;8.65;;;2.85;;
24151;SDS011;12311;50.866;4.332;2023-02-20T09:26:59;18.45;;;3.10;;
24151;SDS011;12311;50.866;4.332;2023-02-20T09:29:25;5.70;;;2.65;;
24151;SDS011;12311;50.866;4.332;2023-02-20T09:31:51;5.68;;;2.63;;
24151;SDS011;12311;50.866;4.332;2023-02-20T09:34:17;8.00;;;2.65;;
24151;SDS011;12311;50.866;4.332;2023-02-20T09:36:43;7.55;;;2.60;;
24151;SDS011;12311;50.866;4.332;2023-02-20T09:39:09;3.75;;;2.30;;
24151;SDS011;12311;50.866;4.332;2023-02-20T09:41:48;12.43;;;3.42;;
24151;SDS011;12311;50.866;4.332;2023-02-20T09:44:48;6.45;;;2.75;;
24151;SDS011;12311;50.866;4.332;2023-02-20T09:50:25;9.20;;;3.22;;
24151;SDS011;12311;50.866;4.332;2023-02-20T09:52:57;7.68;;;3.05;;
24151;SDS011;12311;50.866;4.332;2023-02-20T09:55:37;7.50;;;2.70;;
24151;SDS011;12311;50.866;4.332;2023-02-20T09:58:05;7.43;;;2.70;;
24151;SDS011;12311;50.866;4.332;2023-02-20T10:00:36;8.40;;;2.65;;
24151;SDS011;12311;50.866;4.332;2023-02-20T10:03:11;7.15;;;2.65;;
24151;SDS011;12311;50.866;4.332;2023-02-20T10:05:48;15.35;;;3.17;;
24151;SDS011;12311;50.866;4.332;2023-02-20T10:08:18;6.00;;;3.47;;
24151;SDS011;12311;50.866;4.332;2023-02-20T10:10:47;4.82;;;2.38;;
24151;SDS011;12311;50.866;4.332;2023-02-20T10:16:29;6.07;;;2.72;;
24151;SDS011;12311;50.866;4.332;2023-02-20T10:19:17;9.85;;;2.40;;
24151;SDS011;12311;50.866;4.332;2023-02-20T10:24:39;5.93;;;2.63;;
24151;SDS011;12311;50.866;4.332;2023-02-20T10:29:55;7.43;;;3.30;;
24151;SDS011;12311;50.866;4.332;2023-02-20T10:32:44;9.18;;;3.55;;
24151;SDS011;12311;50.866;4.332;2023-02-20T10:35:35;8.27;;;3.90;;
24151;SDS011;12311;50.866;4.332;2023-02-20T10:38:06;7.75;;;3.63;;
24151;SDS011;12311;50.866;4.332;2023-02-20T10:40:40;9.55;;;3.55;;
24151;SDS011;12311;50.866;4.332;2023-02-20T10:43:17;7.65;;;3.20;;
24151;SDS011;12311;50.866;4.332;2023-02-20T10:48:29;8.18;;;3.15;;
24151;SDS011;12311;50.866;4.332;2023-02-20T10:56:59;9.70;;;2.35;;
24151;SDS011;12311;50.866;4.332;2023-02-20T11:02:04;5.65;;;2.10;;
24151;SDS011;12311;50.866;4.332;2023-02-20T11:04:40;6.60;;;3.25;;
24151;SDS011;12311;50.866;4.332;2023-02-20T11:07:13;7.63;;;2.80;;
24151;SDS011;12311;50.866;4.332;2023-02-20T11:09:42;3.22;;;2.40;;
24151;SDS011;12311;50.866;4.332;2023-02-20T11:12:10;6.53;;;2.70;;
24151;SDS011;12311;50.866;4.332;2023-02-20T11:14:56;6.55;;;3.22;;
24151;SDS011;12311;50.866;4.332;2023-02-20T11:17:29;9.75;;;3.13;;
24151;SDS011;12311;50.866;4.332;2023-02-20T11:19:57;11.15;;;3.47;;
24151;SDS011;12311;50.866;4.332;2023-02-20T11:22:44;9.45;;;2.83;;
24151;SDS011;12311;50.866;4.332;2023-02-20T11:25:20;4.78;;;2.40;;
24151;SDS011;12311;50.866;4.332;2023-02-20T11:28:16;8.57;;;3.08;;
24151;SDS011;12311;50.866;4.332;2023-02-20T11:30:45;5.45;;;2.55;;
24151;SDS011;12311;50.866;4.332;2023-02-20T11:33:32;5.47;;;2.65;;
24151;SDS011;12311;50.866;4.332;2023-02-20T11:38:47;5.78;;;2.80;;
24151;SDS011;12311;50.866;4.332;2023-02-20T11:41:30;7.53;;;2.72;;
24151;SDS011;12311;50.866;4.332;2023-02-20T11:44:05;9.70;;;3.03;;
24151;SDS011;12311;50.866;4.332;2023-02-20T11:46:35;5.30;;;2.80;;
24151;SDS011;12311;50.866;4.332;2023-02-20T11:51:44;10.00;;;3.20;;
24151;SDS011;12311;50.866;4.332;2023-02-20T11:59:25;5.18;;;2.80;;
24151;SDS011;12311;50.866;4.332;2023-02-20T12:02:35;7.22;;;2.63;;
24151;SDS011;12311;50.866;4.332;2023-02-20T12:07:32;14.68;;;3.38;;
24151;SDS011;12311;50.866;4.332;2023-02-20T12:10:15;4.53;;;2.65;;
24151;SDS011;12311;50.866;4.332;2023-02-20T12:13:01;10.52;;;3.88;;
24151;SDS011;12311;50.866;4.332;2023-02-20T12:15:29;4.35;;;2.60;;
24151;SDS011;12311;50.866;4.332;2023-02-20T12:21:14;5.53;;;2.53;;
24151;SDS011;12311;50.866;4.332;2023-02-20T12:26:54;9.35;;;3.22;;
24151;SDS011;12311;50.866;4.332;2023-02-20T12:32:19;6.45;;;2.60;;
24151;SDS011;12311;50.866;4.332;2023-02-20T12:45:54;5.82;;;2.83;;
24151;SDS011;12311;50.866;4.332;2023-02-20T13:01:47;6.80;;;3.05;;
24151;SDS011;12311;50.866;4.332;2023-02-20T13:04:18;7.40;;;3.95;;
24151;SDS011;12311;50.866;4.332;2023-02-20T13:09:43;9.00;;;2.58;;
24151;SDS011;12311;50.866;4.332;2023-02-20T13:12:30;8.48;;;3.38;;
24151;SDS011;12311;50.866;4.332;2023-02-20T13:17:53;10.10;;;3.33;;
24151;SDS011;12311;50.866;4.332;2023-02-20T13:20:25;5.10;;;2.58;;
24151;SDS011;12311;50.866;4.332;2023-02-20T13:25:45;11.65;;;2.97;;
24151;SDS011;12311;50.866;4.332;2023-02-20T13:31:48;12.13;;;2.63;;
24151;SDS011;12311;50.866;4.332;2023-02-20T13:47:02;4.10;;;2.17;;
24151;SDS011;12311;50.866;4.332;2023-02-20T14:02:52;6.53;;;2.88;;
24151;SDS011;12311;50.866;4.332;2023-02-20T14:05:26;14.38;;;3.00;;
24151;SDS011;12311;50.866;4.332;2023-02-20T14:07:54;7.13;;;2.33;;
24151;SDS011;12311;50.866;4.332;2023-02-20T14:10:29;7.70;;;3.05;;
24151;SDS011;12311;50.866;4.332;2023-02-20T14:13:03;4.65;;;2.35;;
24151;SDS011;12311;50.866;4.332;2023-02-20T14:15:48;4.43;;;2.00;;
24151;SDS011;12311;50.866;4.332;2023-02-20T14:18:20;6.75;;;2.63;;
24151;SDS011;12311;50.866;4.332;2023-02-20T14:23:41;6.05;;;2.67;;
24151;SDS011;12311;50.866;4.332;2023-02-20T14:28:57;7.35;;;2.53;;
24151;SDS011;12311;50.866;4.332;2023-02-20T14:31:25;9.48;;;3.35;;
24151;SDS011;12311;50.866;4.332;2023-02-20T14:34:06;8.98;;;2.90;;
24151;SDS011;12311;50.866;4.332;2023-02-20T14:42:01;5.93;;;2.40;;
24151;SDS011;12311;50.866;4.332;2023-02-20T14:44:31;7.55;;;3.20;;
24151;SDS011;12311;50.866;4.332;2023-02-20T14:47:00;5.85;;;3.03;;
24151;SDS011;12311;50.866;4.332;2023-02-20T14:49:28;5.68;;;2.47;;
24151;SDS011;12311;50.866;4.332;2023-02-20T14:55:01;9.88;;;2.42;;
24151;SDS011;12311;50.866;4.332;2023-02-20T14:57:29;3.65;;;2.25;;
24151;SDS011;12311;50.866;4.332;2023-02-20T15:00:08;4.65;;;2.70;;
24151;SDS011;12311;50.866;4.332;2023-02-20T15:02:34;3.13;;;1.70;;
24151;SDS011;12311;50.866;4.332;2023-02-20T15:07:28;9.13;;;2.47;;
24151;SDS011;12311;50.866;4.332;2023-02-20T15:09:55;13.25;;;2.95;;
24151;SDS011;12311;50.866;4.332;2023-02-20T15:14:58;3.58;;;2.30;;
24151;SDS011;12311;50.866;4.332;2023-02-20T15:17:35;5.15;;;2.70;;
24151;SDS011;12311;50.866;4.332;2023-02-20T15:22:45;4.15;;;2.22;;
24151;SDS011;12311;50.866;4.332;2023-02-20T15:27:36;8.75;;;2.47;;
24151;SDS011;12311;50.866;4.332;2023-02-20T15:30:07;3.25;;;2.00;;
24151;SDS011;12311;50.866;4.332;2023-02-20T15:32:35;4.78;;;3.03;;
24151;SDS011;12311;50.866;4.332;2023-02-20T15:35:03;6.53;;;2.70;;
24151;SDS011;12311;50.866;4.332;2023-02-20T15:37:29;13.88;;;2.60;;
24151;SDS011;12311;50.866;4.332;2023-02-20T15:40:04;7.97;;;2.90;;
24151;SDS011;12311;50.866;4.332;2023-02-20T15:42:41;2.38;;;2.17;;
24151;SDS011;12311;50.866;4.332;2023-02-20T15:45:08;3.30;;;2.03;;
24151;SDS011;12311;50.866;4.332;2023-02-20T15:47:36;4.88;;;2.22;;
24151;SDS011;12311;50.866;4.332;2023-02-20T15:50:02;3.53;;;2.08;;
24151;SDS011;12311;50.866;4.332;2023-02-20T15:52:28;6.45;;;3.13;;
24151;SDS011;12311;50.866;4.332;2023-02-20T15:54:55;3.28;;;1.90;;
24151;SDS011;12311;50.866;4.332;2023-02-20T15:57:21;6.22;;;2.60;;
24151;SDS011;12311;50.866;4.332;2023-02-20T15:59:47;4.22;;;2.10;;
24151;SDS011;12311;50.866;4.332;2023-02-20T16:02:18;4.75;;;2.25;;
24151;SDS011;12311;50.866;4.332;2023-02-20T16:04:49;12.38;;;3.65;;
24151;SDS011;12311;50.866;4.332;2023-02-20T16:07:16;5.10;;;2.95;;
24151;SDS011;12311;50.866;4.332;2023-02-20T16:09:43;5.28;;;2.25;;
24151;SDS011;12311;50.866;4.332;2023-02-20T16:12:12;4.57;;;2.50;;
24151;SDS011;12311;50.866;4.332;2023-02-20T16:14:42;7.93;;;3.20;;
24151;SDS011;12311;50.866;4.332;2023-02-20T16:17:10;7.13;;;2.38;;
24151;SDS011;12311;50.866;4.332;2023-02-20T16:19:42;6.60;;;2.88;;
24151;SDS011;12311;50.866;4.332;2023-02-20T16:22:08;3.42;;;2.00;;
24151;SDS011;12311;50.866;4.332;2023-02-20T16:24:34;5.38;;;2.20;;
24151;SDS011;12311;50.866;4.332;2023-02-20T16:27:00;8.70;;;3.10;;
24151;SDS011;12311;50.866;4.332;2023-02-20T16:29:33;5.40;;;2.25;;
24151;SDS011;12311;50.866;4.332;2023-02-20T16:34:27;8.05;;;3.38;;
24151;SDS011;12311;50.866;4.332;2023-02-20T16:36:56;5.32;;;2.55;;
24151;SDS011;12311;50.866;4.332;2023-02-20T16:39:22;4.78;;;2.42;;
24151;SDS011;12311;50.866;4.332;2023-02-20T16:41:49;7.80;;;2.45;;
24151;SDS011;12311;50.866;4.332;2023-02-20T16:44:22;5.88;;;2.53;;
24151;SDS011;12311;50.866;4.332;2023-02-20T16:47:02;5.80;;;3.03;;
24151;SDS011;12311;50.866;4.332;2023-02-20T16:49:28;5.90;;;2.42;;
24151;SDS011;12311;50.866;4.332;2023-02-20T16:52:00;6.32;;;3.00;;
24151;SDS011;12311;50.866;4.332;2023-02-20T16:54:33;4.68;;;2.42;;
24151;SDS011;12311;50.866;4.332;2023-02-20T16:56:59;6.35;;;2.78;;
24151;SDS011;12311;50.866;4.332;2023-02-20T16:59:25;6.28;;;2.58;;
24151;SDS011;12311;50.866;4.332;2023-02-20T17:01:50;8.00;;;2.83;;
24151;SDS011;12311;50.866;4.332;2023-02-20T17:04:16;8.43;;;3.00;;
24151;SDS011;12311;50.866;4.332;2023-02-20T17:06:44;5.53;;;3.35;;
24151;SDS011;12311;50.866;4.332;2023-02-20T17:09:10;7.88;;;3.75;;
24151;SDS011;12311;50.866;4.332;2023-02-20T17:11:36;4.85;;;2.50;;
24151;SDS011;12311;50.866;4.332;2023-02-20T17:14:02;4.10;;;2.58;;
24151;SDS011;12311;50.866;4.332;2023-02-20T17:16:27;5.53;;;3.10;;
24151;SDS011;12311;50.866;4.332;2023-02-20T17:18:53;7.07;;;2.65;;
24151;SDS011;12311;50.866;4.332;2023-02-20T17:21:19;6.97;;;3.40;;
24151;SDS011;12311;50.866;4.332;2023-02-20T17:23:44;7.47;;;3.80;;
24151;SDS011;12311;50.866;4.332;2023-02-20T17:26:10;7.60;;;3.25;;
24151;SDS011;12311;50.866;4.332;2023-02-20T17:28:36;5.85;;;3.00;;
24151;SDS011;12311;50.866;4.332;2023-02-20T17:31:01;8.60;;;3.05;;
24151;SDS011;12311;50.866;4.332;2023-02-20T17:33:27;6.57;;;3.10;;
24151;SDS011;12311;50.866;4.332;2023-02-20T17:35:53;4.30;;;3.08;;
24151;SDS011;12311;50.866;4.332;2023-02-20T17:38:18;6.30;;;2.55;;
24151;SDS011;12311;50.866;4.332;2023-02-20T17:40:44;7.45;;;3.33;;
24151;SDS011;12311;50.866;4.332;2023-02-20T17:43:10;21.65;;;4.03;;
24151;SDS011;12311;50.866;4.332;2023-02-20T17:45:36;5.05;;;2.80;;
24151;SDS011;12311;50.866;4.332;2023-02-20T17:48:01;7.20;;;3.30;;
24151;SDS011;12311;50.866;4.332;2023-02-20T17:50:29;6.97;;;2.00;;
24151;SDS011;12311;50.866;4.332;2023-02-20T17:52:55;9.77;;;3.65;;
24151;SDS011;12311;50.866;4.332;2023-02-20T17:55:22;8.18;;;2.60;;